Weather reports worldwide

Advertisment
Oliva, Spain (8282): temperature & dewpoint: 16.09.2018 23:00:00 - 22.09.2018 23:00:00 (CEST)Oliva, Spain (8282): wind speed & gusts: 16.09.2018 23:00:00 - 22.09.2018 23:00:00 (CEST)Oliva, Spain (8282): wind direction: 16.09.2018 23:00:00 - 22.09.2018 23:00:00 (CEST)Oliva, Spain (8282): precipitation: 16.09.2018 23:00:00 - 22.09.2018 23:00:00 (CEST)
Date & Time tt [°C] td [°C] ff [km/h] ff [kn] fx [km/h] fx [kn] dd rr [mm]
22.09.2018 23:00:00 24,2 22,1 5 3 13 7 NNE 0,0
22.09.2018 22:00:00 24,6 22,5 6 4 11 6 ENE 0,0
22.09.2018 21:00:00 26,0 23,5 0 0 4 2 N 0,0
22.09.2018 20:00:00 27,2 24,2 1 1 4 2 E -
22.09.2018 19:00:00 28,2 24,6 0 0 8 4 E 0,0
22.09.2018 18:00:00 28,1 24,5 4 2 8 5 E 0,0
22.09.2018 17:00:00 27,3 24,1 6 3 13 7 E 0,0
22.09.2018 16:00:00 27,6 23,9 9 5 15 8 E 0,0
22.09.2018 15:00:00 27,4 23,9 8 4 14 8 E 0,0
22.09.2018 14:00:00 27,5 23,7 7 4 13 7 NE -
22.09.2018 13:00:00 28,1 24,1 6 4 12 7 NE 0,0
22.09.2018 12:00:00 27,7 23,3 7 4 12 6 NNE 0,0
22.09.2018 11:00:00 27,3 19,6 5 3 8 4 SSE 0,0
22.09.2018 10:00:00 25,5 20,5 3 2 8 4 SSE 0,0
22.09.2018 09:00:00 20,9 18,7 1 0 6 3 SSE 0,0
22.09.2018 08:00:00 19,3 17,1 3 1 8 4 SSE -
22.09.2018 07:00:00 19,4 17,4 6 3 8 5 SSE 0,0
22.09.2018 06:00:00 20,0 17,9 2 1 6 4 SSE 0,0
22.09.2018 05:00:00 20,0 17,9 0 0 6 3 SSE 0,0
22.09.2018 04:00:00 20,6 18,5 0 0 6 4 SSE 0,0
22.09.2018 03:00:00 21,1 18,8 1 1 4 2 SSE 0,0
22.09.2018 02:00:00 21,5 19,1 0 0 6 3 SSE -
22.09.2018 01:00:00 22,0 19,6 1 1 5 3 SSE 0,0
22.09.2018 00:00:00 22,8 19,8 0 0 9 5 SSE 0,0
21.09.2018 23:00:00 23,4 20,7 3 1 9 5 SE 0,0
21.09.2018 22:00:00 24,2 20,9 2 1 7 4 SE 0,0
21.09.2018 21:00:00 25,8 22,1 0 0 16 9 N 0,0
21.09.2018 20:00:00 28,1 23,9 10 5 20 11 SE -
21.09.2018 19:00:00 29,6 21,3 10 5 20 11 SE 0,0
21.09.2018 18:00:00 29,3 21,8 5 3 9 5 E 0,0
21.09.2018 17:00:00 29,0 23,7 4 2 8 4 ENE 0,0
21.09.2018 16:00:00 28,6 24,0 6 3 10 5 E 0,0
21.09.2018 15:00:00 28,0 22,3 6 3 14 8 ENE 0,0
21.09.2018 14:00:00 27,8 22,3 10 5 16 9 NE -
21.09.2018 13:00:00 27,6 22,6 8 4 12 7 ENE 0,0
21.09.2018 12:00:00 27,1 20,2 8 4 13 7 ESE 0,0
21.09.2018 11:00:00 26,2 21,0 5 3 8 4 ESE 0,0
21.09.2018 10:00:00 24,7 20,2 0 0 4 2 N 0,0
21.09.2018 09:00:00 20,9 18,8 1 1 5 3 SE 0,0
21.09.2018 08:00:00 18,7 16,8 0 0 6 3 SE -
21.09.2018 07:00:00 19,2 17,4 4 2 6 3 SE 0,0
21.09.2018 06:00:00 19,1 17,1 0 0 6 4 N 0,0
21.09.2018 05:00:00 19,4 17,4 0 0 8 4 SE 0,0
21.09.2018 04:00:00 19,1 17,1 3 1 5 3 SE 0,0
21.09.2018 03:00:00 19,8 17,5 2 1 5 3 SE 0,0
21.09.2018 02:00:00 20,5 18,2 1 0 6 3 SE -
21.09.2018 01:00:00 20,6 18,2 3 2 7 4 SE 0,0
21.09.2018 00:00:00 21,1 18,7 4 2 7 4 ESE 0,0
20.09.2018 23:00:00 21,8 19,3 0 0 6 3 ESE 0,0
20.09.2018 22:00:00 22,7 19,8 3 2 6 3 ESE 0,0
20.09.2018 21:00:00 25,4 21,5 3 2 16 9 ESE 0,0
20.09.2018 20:00:00 27,0 19,1 10 6 19 10 SE -
20.09.2018 19:00:00 27,6 20,9 9 5 20 11 SE 0,0
20.09.2018 18:00:00 27,0 23,5 10 6 23 13 ESE 0,0
20.09.2018 17:00:00 26,5 23,2 14 8 24 13 ESE 0,0
20.09.2018 16:00:00 26,5 23,0 12 6 23 12 E 0,0
20.09.2018 15:00:00 26,4 22,7 10 5 20 11 E 0,0
20.09.2018 14:00:00 26,4 22,3 11 6 19 10 E -
20.09.2018 13:00:00 26,2 22,3 9 5 16 9 E 0,0
20.09.2018 12:00:00 25,5 21,2 8 4 11 6 E 0,0
20.09.2018 11:00:00 25,6 20,9 3 2 7 4 NE 0,0
20.09.2018 10:00:00 23,7 21,4 0 0 4 2 NNE 0,0
20.09.2018 09:00:00 20,3 18,4 2 1 6 3 NNE 0,1
20.09.2018 08:00:00 18,7 16,8 1 1 6 3 NNE -
20.09.2018 07:00:00 19,1 17,2 4 2 6 4 NE 0,0
20.09.2018 06:00:00 19,3 17,5 0 0 6 3 NE 0,0
20.09.2018 05:00:00 19,7 17,9 1 0 6 3 NE 0,0
20.09.2018 04:00:00 20,3 18,4 4 2 7 4 NE 0,0
20.09.2018 03:00:00 20,4 18,5 0 0 7 4 NE 0,0
20.09.2018 02:00:00 20,7 18,8 3 2 7 4 NE -
20.09.2018 01:00:00 21,2 19,3 0 0 2 1 N 0,0
20.09.2018 00:00:00 21,6 19,5 1 0 6 3 NE 0,0
19.09.2018 23:00:00 22,2 20,1 0 0 5 3 N 0,0
19.09.2018 22:00:00 23,0 20,7 0 0 5 3 NE 0,0
19.09.2018 21:00:00 24,3 21,8 1 1 5 3 NE 0,0
19.09.2018 20:00:00 25,2 22,1 4 2 7 4 NE -
19.09.2018 19:00:00 25,8 22,5 4 2 11 6 NE 0,0
19.09.2018 18:00:00 26,3 23,0 7 4 13 7 NE 0,0
19.09.2018 17:00:00 26,7 23,2 7 4 16 8 NE 0,0
19.09.2018 16:00:00 27,0 22,8 9 5 17 9 NE 0,0
19.09.2018 15:00:00 26,6 23,0 10 5 20 11 NNE 0,0
19.09.2018 14:00:00 26,0 22,3 11 6 19 10 N -
19.09.2018 13:00:00 25,9 22,0 9 5 17 9 N 0,0
19.09.2018 12:00:00 25,4 21,9 7 4 14 8 NNW 0,0
19.09.2018 11:00:00 24,7 21,0 7 4 15 8 NNW 0,0
19.09.2018 10:00:00 23,2 20,7 6 3 11 6 WNW 0,0
19.09.2018 09:00:00 21,4 19,5 4 2 8 4 WNW 0,0
19.09.2018 08:00:00 20,0 18,2 4 2 7 4 WNW -
19.09.2018 07:00:00 20,2 18,3 4 2 9 5 W 0,0
19.09.2018 06:00:00 20,3 18,4 5 3 9 5 WNW 0,0
19.09.2018 05:00:00 20,7 18,8 4 2 9 5 W 0,0
19.09.2018 04:00:00 20,9 19,0 5 3 11 6 WNW 0,0
19.09.2018 03:00:00 21,2 19,3 5 3 9 5 WNW 0,0
19.09.2018 02:00:00 21,8 19,7 0 0 6 3 WNW -
19.09.2018 01:00:00 22,3 20,2 1 0 11 6 WNW 0,0
19.09.2018 00:00:00 22,5 20,6 5 3 13 7 NW 0,0
18.09.2018 23:00:00 23,0 21,1 0 0 11 6 NW 0,0
18.09.2018 22:00:00 23,3 21,0 0 0 6 3 SE 0,0
18.09.2018 21:00:00 23,6 21,1 0 0 5 3 N 0,0
18.09.2018 20:00:00 24,5 21,6 2 1 10 6 SE -
18.09.2018 19:00:00 25,0 22,1 6 3 13 7 SE 0,0
18.09.2018 18:00:00 24,8 21,9 9 5 16 9 E 0,0
18.09.2018 17:00:00 25,9 22,4 8 4 13 7 E 0,0
18.09.2018 16:00:00 25,9 22,0 7 4 15 8 E 0,0
18.09.2018 15:00:00 25,9 22,4 8 4 14 7 ENE 0,0
18.09.2018 14:00:00 25,8 22,1 8 4 16 8 NE -
18.09.2018 13:00:00 25,2 21,9 8 4 15 8 N 0,0
18.09.2018 12:00:00 23,8 21,3 7 4 14 7 WNW 0,0
18.09.2018 11:00:00 22,7 20,6 7 4 10 6 WNW 0,0
18.09.2018 10:00:00 22,1 20,2 5 3 10 5 W 0,0
18.09.2018 09:00:00 22,0 20,1 3 2 8 4 WNW 0,0
18.09.2018 08:00:00 20,9 18,8 2 1 10 5 WNW -
18.09.2018 07:00:00 21,5 19,1 6 3 12 6 WNW 0,0
18.09.2018 06:00:00 22,0 19,7 7 4 19 10 NNW 0,0
18.09.2018 05:00:00 21,7 19,8 6 3 28 15 WNW 0,0
18.09.2018 04:00:00 23,0 21,1 17 9 28 15 N 0,0
18.09.2018 03:00:00 22,6 20,7 0 0 8 4 SSE 0,0
18.09.2018 02:00:00 22,8 20,9 1 1 6 4 SE -
18.09.2018 01:00:00 22,8 20,9 0 0 4 2 SE 0,0
18.09.2018 00:00:00 23,5 21,4 0 0 2 1 SE 0,0
17.09.2018 23:00:00 23,2 21,1 0 0 4 2 N 0,0
17.09.2018 22:00:00 24,3 22,0 0 0 12 6 SE 0,0
17.09.2018 21:00:00 25,4 22,9 6 3 17 9 SE 0,0
17.09.2018 20:00:00 25,4 22,7 9 5 16 9 ESE -
17.09.2018 19:00:00 25,7 23,0 9 5 16 8 E 0,0
17.09.2018 18:00:00 26,2 22,9 6 3 11 6 ESE 0,0
17.09.2018 17:00:00 26,6 23,3 6 3 12 6 NE 0,0
17.09.2018 16:00:00 26,5 23,0 6 3 13 7 NE 0,0
17.09.2018 15:00:00 26,9 23,3 6 4 14 8 N 0,0
17.09.2018 14:00:00 26,5 23,0 7 4 14 8 N -
17.09.2018 13:00:00 25,9 22,4 5 3 11 6 NE 0,0
17.09.2018 12:00:00 25,8 22,3 4 2 15 8 N 0,0
17.09.2018 11:00:00 24,3 22,2 8 4 14 7 WNW 0,0
17.09.2018 10:00:00 22,5 20,6 4 2 9 5 WNW 0,0
17.09.2018 09:00:00 21,7 19,8 0 0 7 4 N 0,0
17.09.2018 08:00:00 20,1 18,4 4 2 8 4 W -
17.09.2018 07:00:00 20,3 18,6 4 2 9 5 W 0,0
17.09.2018 06:00:00 20,4 18,7 3 1 10 5 WNW 0,0
17.09.2018 05:00:00 20,6 18,7 5 3 11 6 NW 0,0
17.09.2018 04:00:00 20,8 18,9 3 1 8 4 NE 0,0
17.09.2018 03:00:00 21,1 19,2 3 1 5 3 NE 0,0
17.09.2018 02:00:00 20,7 18,8 2 1 7 4 NE -
17.09.2018 01:00:00 21,0 19,1 0 0 7 4 NE 0,0
17.09.2018 00:00:00 21,4 19,5 3 2 5 3 ENE 0,0
16.09.2018 23:00:00 21,9 19,8 0 0 3 2 ENE 0,0

tt = temperature
td = dewpoint
ff = wind speed
fx = gusts
dd = wind direction
rr = precipitation

Next stations